Time;durP1;ratioP1;P1;durP2;ratioP2;P2;SDS_P1;SDS_P2;PMS_P1;PMS_P2;Temp;Humidity;BMP_temperature;BMP_pressure;BME280_temperature;BME280_humidity;BME280_pressure;Samples;Min_cycle;Max_cycle;Signal;HPM_P1;HPM_P2
2022/12/26 00:00:16;;;;;;;16.87;15.47;;;10.80;99.90;;;;;;5102039;28;20180;-54
2022/12/26 00:02:41;;;;;;;17.40;15.90;;;10.80;99.90;;;;;;5102676;28;20199;-53
2022/12/26 00:05:07;;;;;;;17.57;16.20;;;10.90;99.90;;;;;;5101425;28;20422;-53
2022/12/26 00:07:33;;;;;;;17.00;15.60;;;10.90;99.90;;;;;;5102112;28;20610;-52
2022/12/26 00:09:58;;;;;;;19.47;17.87;;;10.90;99.90;;;;;;5101848;28;20288;-53
2022/12/26 00:12:24;;;;;;;17.73;16.33;;;10.90;99.90;;;;;;5102093;28;20572;-51
2022/12/26 00:14:50;;;;;;;17.13;15.83;;;10.80;99.90;;;;;;5101694;28;20188;-54
2022/12/26 00:17:15;;;;;;;17.40;16.10;;;10.90;99.90;;;;;;5102814;28;20228;-53
2022/12/26 00:19:41;;;;;;;17.70;16.23;;;10.90;99.90;;;;;;5102224;28;20198;-51
2022/12/26 00:22:07;;;;;;;17.40;16.00;;;10.90;99.90;;;;;;5102210;28;20172;-54
2022/12/26 00:24:33;;;;;;;18.13;16.53;;;10.80;99.90;;;;;;5101223;28;20669;-51
2022/12/26 00:26:58;;;;;;;17.50;16.10;;;10.90;99.90;;;;;;5102131;28;20402;-53
2022/12/26 00:29:24;;;;;;;18.70;17.20;;;10.80;99.90;;;;;;5101751;28;20184;-52
2022/12/26 00:31:50;;;;;;;17.07;15.77;;;10.80;99.90;;;;;;5101851;28;20219;-53
2022/12/26 00:34:15;;;;;;;19.20;17.60;;;10.80;99.90;;;;;;5084256;28;20199;-53
2022/12/26 00:36:41;;;;;;;19.00;17.47;;;10.70;99.90;;;;;;5101723;28;20250;-50
2022/12/26 00:39:06;;;;;;;20.07;18.37;;;10.60;99.90;;;;;;5102039;28;20198;-54
2022/12/26 00:41:32;;;;;;;17.20;15.90;;;10.60;99.90;;;;;;5100033;28;20241;-50
2022/12/26 00:43:58;;;;;;;19.23;17.60;;;10.70;99.90;;;;;;5101635;28;20194;-55
2022/12/26 00:46:25;;;;;;;18.07;16.57;;;10.70;99.90;;;;;;5101320;28;20436;-52
2022/12/26 00:48:51;;;;;;;19.00;17.47;;;10.70;99.90;;;;;;5102429;28;20271;-50
2022/12/26 00:51:17;;;;;;;18.50;17.10;;;10.70;99.90;;;;;;5101187;28;20461;-49
2022/12/26 00:53:43;;;;;;;19.43;17.83;;;10.70;99.90;;;;;;5102144;28;20184;-52
2022/12/26 00:56:08;;;;;;;18.47;16.93;;;10.70;99.90;;;;;;5102328;28;20418;-54
2022/12/26 00:58:35;;;;;;;18.20;16.70;;;10.60;99.90;;;;;;5100654;28;20433;-54
2022/12/26 01:01:18;;;;;;;17.87;16.37;;;10.70;99.90;;;;;;5099755;28;20238;-52
2022/12/26 01:03:45;;;;;;;18.37;16.87;;;10.70;99.90;;;;;;5100681;28;20457;-53
2022/12/26 01:06:11;;;;;;;18.00;16.30;;;10.60;99.90;;;;;;5100870;28;20537;-55
2022/12/26 01:08:37;;;;;;;18.27;16.77;;;10.60;99.90;;;;;;5101095;28;20775;-50
2022/12/26 01:11:10;;;;;;;18.30;16.80;;;10.60;99.90;;;;;;5101637;28;20460;-55
2022/12/26 01:13:36;;;;;;;18.67;17.17;;;10.60;99.90;;;;;;5101014;28;20866;-53
2022/12/26 01:16:02;;;;;;;19.27;17.77;;;10.60;99.90;;;;;;5099995;28;20544;-54
2022/12/26 01:18:28;;;;;;;18.60;17.00;;;10.60;99.90;;;;;;5100973;28;20441;-54
2022/12/26 01:21:05;;;;;;;19.50;17.70;;;10.60;99.90;;;;;;5102195;28;20828;-53
2022/12/26 01:23:31;;;;;;;18.70;17.00;;;10.70;99.90;;;;;;5101119;28;20187;-55
2022/12/26 01:25:57;;;;;;;18.53;17.07;;;10.60;99.90;;;;;;5101127;28;20733;-55
2022/12/26 01:28:22;;;;;;;19.00;17.40;;;10.60;99.90;;;;;;5100930;28;20187;-51
2022/12/26 01:30:48;;;;;;;20.03;18.33;;;10.60;99.90;;;;;;5101485;28;20286;-54
2022/12/26 01:33:14;;;;;;;18.70;17.20;;;10.50;99.90;;;;;;5100563;28;20195;-52
2022/12/26 01:35:48;;;;;;;18.67;17.17;;;10.60;99.90;;;;;;5101049;28;20191;-55
2022/12/26 01:38:13;;;;;;;18.83;17.33;;;10.60;99.90;;;;;;5099675;28;20201;-54
2022/12/26 01:40:42;;;;;;;19.13;17.43;;;10.60;99.90;;;;;;5100615;28;20429;-53
2022/12/26 01:43:11;;;;;;;18.77;17.23;;;10.60;99.90;;;;;;5100554;28;20220;-48
2022/12/26 01:45:36;;;;;;;18.93;17.33;;;10.50;99.90;;;;;;5101018;28;20512;-52
2022/12/26 01:48:24;;;;;;;18.83;17.13;;;10.50;99.90;;;;;;5099892;28;20946;-53
2022/12/26 01:50:55;;;;;;;18.83;17.23;;;10.50;99.90;;;;;;5100856;28;20583;-55
2022/12/26 01:53:48;;;;;;;18.50;16.90;;;10.50;99.90;;;;;;5100778;28;20522;-52
2022/12/26 01:56:19;;;;;;;18.63;17.03;;;10.50;99.90;;;;;;5099868;28;20417;-54
2022/12/26 01:58:58;;;;;;;17.87;16.50;;;10.50;99.90;;;;;;5099416;28;20434;-55
2022/12/26 02:01:29;;;;;;;17.40;16.00;;;10.50;99.90;;;;;;5098163;28;20429;-53
2022/12/26 02:06:40;;;;;;;18.27;16.83;;;10.50;99.90;;;;;;5100150;27;20464;-52
2022/12/26 02:09:06;;;;;;;18.40;16.97;;;10.50;99.90;;;;;;5100234;28;20496;-55
2022/12/26 02:11:37;;;;;;;18.30;16.80;;;10.60;99.90;;;;;;5099969;28;20464;-53
2022/12/26 02:14:05;;;;;;;18.10;16.50;;;10.60;99.90;;;;;;5101011;28;20903;-54
2022/12/26 02:16:32;;;;;;;18.27;16.77;;;10.60;99.90;;;;;;5100222;28;20473;-51
2022/12/26 02:18:58;;;;;;;19.20;17.70;;;10.60;99.90;;;;;;5098988;28;20426;-55
2022/12/26 02:21:31;;;;;;;18.40;16.90;;;10.60;99.90;;;;;;5100797;28;20564;-56
2022/12/26 02:24:37;;;;;;;18.73;17.13;;;10.60;99.90;;;;;;5099359;28;20456;-53
2022/12/26 02:27:26;;;;;;;17.67;16.27;;;10.50;99.90;;;;;;5097736;28;20437;-54
2022/12/26 02:30:04;;;;;;;17.53;16.23;;;10.50;99.90;;;;;;5100282;28;20480;-52
2022/12/26 02:33:03;;;;;;;17.97;16.40;;;10.50;99.90;;;;;;5098874;28;21163;-52
2022/12/26 02:35:42;;;;;;;17.63;16.13;;;10.50;99.90;;;;;;5100060;28;20433;-50
2022/12/26 02:38:27;;;;;;;17.17;15.77;;;10.60;99.90;;;;;;5099187;28;20476;-54
2022/12/26 02:40:59;;;;;;;17.23;15.77;;;10.60;99.90;;;;;;5100611;28;20478;-55
2022/12/26 02:43:59;;;;;;;17.23;15.80;;;10.60;99.90;;;;;;5098774;28;20926;-52
2022/12/26 02:47:01;;;;;;;16.50;15.20;;;10.70;99.90;;;;;;5099568;28;20438;-50
2022/12/26 03:13:09;;;;;;;17.00;15.60;;;10.60;99.90;;;;;;5082220;28;20441;-53
2022/12/26 03:13:12;;;;;;;16.17;14.97;;;10.80;99.90;;;;;;5103257;28;20976;-52
2022/12/26 03:18:33;;;;;;;15.97;14.77;;;10.90;99.90;;;;;;5102571;28;20541;-54
2022/12/26 03:20:59;;;;;;;16.03;14.73;;;10.90;99.90;;;;;;5104161;28;20937;-54
2022/12/26 03:23:26;;;;;;;15.63;14.53;;;10.90;99.90;;;;;;5103172;28;20483;-53
2022/12/26 03:28:46;;;;;;;15.57;14.43;;;10.90;99.90;;;;;;5103881;28;20933;-54
2022/12/26 03:31:13;;;;;;;15.43;14.20;;;10.90;99.90;;;;;;5102203;28;20473;-52
2022/12/26 03:36:38;;;;;;;15.07;13.97;;;10.90;99.90;;;;;;5101277;28;20488;-54
2022/12/26 04:44:13;;;;;;;15.00;13.90;;;10.90;99.90;;;;;;5082183;28;20511;-51
2022/12/26 04:46:41;;;;;;;15.50;14.30;;;10.80;99.90;;;;;;5081414;28;20420;-54
2022/12/26 04:51:56;;;;;;;16.57;15.13;;;10.60;99.90;;;;;;5080411;28;20457;-50
2022/12/26 04:54:22;;;;;;;17.00;15.57;;;10.50;99.90;;;;;;5080875;28;20429;-53
2022/12/26 04:56:47;;;;;;;16.50;15.00;;;10.50;99.90;;;;;;5081268;28;20978;-52
2022/12/26 04:59:14;;;;;;;16.70;15.03;;;10.40;99.90;;;;;;5080841;28;20259;-47
2022/12/26 05:10:16;;;;;;;17.17;15.57;;;10.20;99.90;;;;;;5081761;28;20465;-50
2022/12/26 05:12:41;;;;;;;16.20;15.07;;;10.30;99.90;;;;;;5080286;28;20501;-51
2022/12/26 05:15:07;;;;;;;16.73;15.57;;;10.20;99.90;;;;;;5079787;28;20435;-52
2022/12/26 05:28:40;;;;;;;15.60;14.40;;;10.20;99.90;;;;;;5100785;28;20996;-50
2022/12/26 05:29:02;;;;;;;14.97;13.77;;;10.30;99.90;;;;;;5101145;28;20460;-52
2022/12/26 05:31:28;;;;;;;15.47;14.17;;;10.40;99.90;;;;;;5100555;28;20465;-51
2022/12/26 05:34:07;;;;;;;15.83;14.73;;;10.30;99.90;;;;;;5101044;28;20571;-52
2022/12/26 05:36:40;;;;;;;15.80;14.70;;;10.40;99.90;;;;;;5079925;28;20418;-53
2022/12/26 05:39:07;;;;;;;15.77;14.67;;;10.40;99.90;;;;;;5099921;28;20413;-53
2022/12/26 05:41:33;;;;;;;13.80;12.80;;;10.40;99.90;;;;;;5101328;28;20986;-53
2022/12/26 05:43:59;;;;;;;14.00;12.83;;;10.60;99.90;;;;;;5100360;28;21568;-52
2022/12/26 05:46:25;;;;;;;13.90;12.80;;;10.60;99.90;;;;;;5101154;28;20414;-52
2022/12/26 05:48:50;;;;;;;12.40;11.50;;;10.70;99.90;;;;;;5101474;28;20663;-55
2022/12/26 05:51:16;;;;;;;11.30;10.53;;;10.90;99.90;;;;;;5099585;28;20236;-52
2022/12/26 05:53:41;;;;;;;10.80;10.20;;;11.10;99.90;;;;;;5100971;28;20692;-52
2022/12/26 05:56:11;;;;;;;10.47;9.87;;;11.20;99.90;;;;;;5100269;28;20182;-52
2022/12/26 05:58:37;;;;;;;9.40;8.90;;;11.50;99.90;;;;;;5080820;28;20187;-56
2022/12/26 06:01:09;;;;;;;10.40;9.70;;;12.00;99.90;;;;;;5099391;28;20422;-52
2022/12/26 06:03:35;;;;;;;10.30;9.80;;;12.40;99.90;;;;;;5099685;28;20442;-52
2022/12/26 06:06:01;;;;;;;10.43;9.83;;;12.60;99.90;;;;;;5098677;28;20425;-51
2022/12/26 06:08:27;;;;;;;10.27;9.67;;;12.70;99.90;;;;;;5100916;28;20417;-52
2022/12/26 06:10:52;;;;;;;10.20;9.57;;;12.80;99.90;;;;;;5098950;28;20265;-52
2022/12/26 06:13:18;;;;;;;10.33;9.73;;;13.00;99.90;;;;;;5100712;28;20552;-51
2022/12/26 06:15:43;;;;;;;10.10;9.60;;;13.00;99.90;;;;;;5100813;28;20228;-51
2022/12/26 06:18:09;;;;;;;9.80;9.30;;;13.10;99.90;;;;;;5100458;28;20181;-54
2022/12/26 06:20:38;;;;;;;10.43;9.83;;;13.20;99.90;;;;;;5100772;28;20173;-54
2022/12/26 06:23:03;;;;;;;10.60;10.10;;;13.30;99.90;;;;;;5100686;28;20239;-52
2022/12/26 06:25:29;;;;;;;10.30;9.80;;;13.40;99.90;;;;;;5098619;28;20432;-53
2022/12/26 06:27:55;;;;;;;10.70;10.10;;;13.40;99.90;;;;;;5099678;28;20208;-53
2022/12/26 06:30:20;;;;;;;11.03;10.20;;;13.30;99.90;;;;;;5081701;28;20212;-54
2022/12/26 06:32:46;;;;;;;9.80;9.30;;;13.40;99.90;;;;;;5101119;28;20181;-53
2022/12/26 06:35:11;;;;;;;10.30;9.80;;;13.30;99.90;;;;;;5098503;28;20224;-56
2022/12/26 06:37:37;;;;;;;10.13;9.63;;;13.40;99.90;;;;;;5100695;28;20285;-52
2022/12/26 06:40:04;;;;;;;9.37;8.87;;;13.30;99.90;;;;;;5099544;28;20182;-49
2022/12/26 06:42:29;;;;;;;10.10;9.60;;;13.30;99.90;;;;;;5100984;28;20420;-55
2022/12/26 06:44:55;;;;;;;10.13;9.63;;;13.30;99.90;;;;;;5099849;28;20422;-50
2022/12/26 06:47:21;;;;;;;9.70;9.20;;;13.40;99.90;;;;;;5100219;28;20183;-53
2022/12/26 06:49:46;;;;;;;10.13;9.43;;;13.40;99.90;;;;;;5099891;28;20180;-55
2022/12/26 06:52:13;;;;;;;10.67;9.87;;;13.40;99.90;;;;;;5100916;28;20186;-53
2022/12/26 06:54:39;;;;;;;10.60;10.00;;;13.40;99.90;;;;;;5099483;28;20186;-50
2022/12/26 06:57:05;;;;;;;10.40;9.90;;;13.40;99.90;;;;;;5098726;28;20439;-51
2022/12/26 06:59:31;;;;;;;10.50;10.00;;;13.50;99.90;;;;;;5097679;28;20180;-53
2022/12/26 07:01:57;;;;;;;10.47;9.97;;;13.50;99.90;;;;;;5097824;28;20187;-50
2022/12/26 07:04:23;;;;;;;10.90;10.30;;;13.50;99.90;;;;;;5068025;28;20704;-50
2022/12/26 07:06:49;;;;;;;10.20;9.60;;;13.40;99.90;;;;;;5099765;28;20316;-53
2022/12/26 07:09:17;;;;;;;10.47;9.80;;;13.20;99.90;;;;;;5099198;28;20436;-51
2022/12/26 07:11:48;;;;;;;10.40;9.90;;;13.10;99.90;;;;;;5081913;28;20215;-50
2022/12/26 07:14:15;;;;;;;10.83;10.10;;;13.10;99.90;;;;;;5099793;28;20955;-55
2022/12/26 07:16:43;;;;;;;10.43;9.90;;;13.10;99.90;;;;;;5100343;28;21060;-51
2022/12/26 07:19:10;;;;;;;10.67;10.03;;;13.00;99.90;;;;;;5068855;28;20434;-53
2022/12/26 07:21:36;;;;;;;11.80;11.00;;;13.00;99.90;;;;;;5098491;28;21462;-52
2022/12/26 07:24:02;;;;;;;10.80;10.30;;;13.00;99.90;;;;;;5099078;28;20439;-52
2022/12/26 07:26:28;;;;;;;11.47;10.77;;;13.00;99.90;;;;;;5099680;28;20459;-54
2022/12/26 07:28:57;;;;;;;12.37;11.37;;;13.00;99.90;;;;;;5097043;28;20465;-52
2022/12/26 07:31:24;;;;;;;11.70;11.10;;;12.80;99.90;;;;;;5098959;28;20258;-53
2022/12/26 07:33:52;;;;;;;12.40;11.60;;;12.60;99.90;;;;;;5097642;28;21015;-52
2022/12/26 07:36:18;;;;;;;12.13;11.33;;;12.40;99.90;;;;;;5097769;28;20442;-50
2022/12/26 07:38:44;;;;;;;12.33;11.43;;;12.30;99.90;;;;;;5103064;28;21257;-57
2022/12/26 07:43:55;;;;;;;13.30;12.40;;;12.00;99.90;;;;;;5101999;28;20416;-55
2022/12/26 07:46:21;;;;;;;13.60;12.70;;;11.90;99.90;;;;;;5102276;28;20425;-49
2022/12/26 07:48:46;;;;;;;12.47;11.57;;;11.80;99.90;;;;;;5102142;28;20975;-47
2022/12/26 07:51:12;;;;;;;12.83;12.03;;;11.80;99.90;;;;;;5078845;28;20207;-52
2022/12/26 07:53:38;;;;;;;12.27;11.50;;;11.80;99.90;;;;;;5098976;28;20688;-53
2022/12/26 07:56:04;;;;;;;12.67;11.97;;;11.70;99.90;;;;;;5098728;28;20207;-50
2022/12/26 07:58:29;;;;;;;12.83;11.93;;;11.70;99.90;;;;;;5101857;28;20185;-52
2022/12/26 08:00:55;;;;;;;12.20;11.50;;;11.60;99.90;;;;;;5098575;28;20180;-51
2022/12/26 08:03:20;;;;;;;11.43;10.83;;;11.60;99.90;;;;;;5101592;28;20241;-48
2022/12/26 08:05:50;;;;;;;12.30;11.53;;;11.60;99.90;;;;;;5099230;28;20193;-49
2022/12/26 08:08:15;;;;;;;13.10;12.23;;;11.60;99.90;;;;;;5100360;28;20194;-52
2022/12/26 08:10:41;;;;;;;12.00;11.30;;;11.60;99.90;;;;;;5100774;28;20465;-51
2022/12/26 08:13:07;;;;;;;12.20;11.43;;;11.60;99.90;;;;;;5099246;28;20559;-51
2022/12/26 08:15:33;;;;;;;12.87;12.07;;;11.60;99.90;;;;;;5100589;28;20451;-50
2022/12/26 08:17:58;;;;;;;12.13;11.43;;;11.60;99.90;;;;;;5101932;28;20181;-49
2022/12/26 08:20:24;;;;;;;12.67;11.90;;;11.70;99.90;;;;;;5099486;28;20226;-52
2022/12/26 08:22:50;;;;;;;12.30;11.60;;;11.80;99.90;;;;;;5100899;28;20191;-47
2022/12/26 08:25:16;;;;;;;12.03;11.33;;;11.80;99.90;;;;;;5097653;28;20449;-49
2022/12/26 08:27:41;;;;;;;13.70;12.80;;;11.90;99.90;;;;;;5102073;28;20172;-54
2022/12/26 08:30:08;;;;;;;28.30;25.50;;;12.00;99.90;;;;;;5100585;28;20847;-49
2022/12/26 08:32:33;;;;;;;14.60;13.50;;;12.10;99.90;;;;;;5098738;28;20196;-49
2022/12/26 08:34:59;;;;;;;11.77;11.07;;;12.20;99.90;;;;;;5087172;28;20573;-49
2022/12/26 08:37:25;;;;;;;10.67;10.07;;;12.20;99.90;;;;;;5098608;28;20186;-48
2022/12/26 08:39:54;;;;;;;12.23;11.53;;;12.40;99.90;;;;;;5101798;28;20263;-52
2022/12/26 08:42:20;;;;;;;12.50;11.80;;;12.40;99.90;;;;;;5101067;28;20181;-48
2022/12/26 08:44:46;;;;;;;11.90;11.20;;;12.40;99.90;;;;;;5084721;28;20406;-49
2022/12/26 08:47:13;;;;;;;15.43;14.30;;;12.60;99.90;;;;;;5100063;28;20436;-51
2022/12/26 08:49:39;;;;;;;11.30;10.70;;;12.50;99.90;;;;;;5098569;28;20395;-49
2022/12/26 08:52:04;;;;;;;11.20;10.50;;;12.60;99.90;;;;;;5100130;27;20472;-52
2022/12/26 08:54:30;;;;;;;9.60;9.10;;;12.80;99.90;;;;;;5100945;28;20178;-55
2022/12/26 08:56:56;;;;;;;9.97;9.47;;;13.10;99.90;;;;;;5100194;28;20190;-51
2022/12/26 08:59:22;;;;;;;10.00;9.40;;;13.20;99.90;;;;;;5099310;28;20485;-47
2022/12/26 09:01:47;;;;;;;10.13;9.57;;;13.50;99.90;;;;;;5096981;28;20179;-48
2022/12/26 09:04:13;;;;;;;10.30;9.70;;;13.70;99.90;;;;;;5098493;28;20225;-49
2022/12/26 09:06:40;;;;;;;10.10;9.50;;;13.90;99.90;;;;;;5099205;28;20230;-48
2022/12/26 09:09:07;;;;;;;9.80;9.30;;;13.90;99.90;;;;;;5100980;28;20405;-49
2022/12/26 09:11:33;;;;;;;10.10;9.43;;;14.00;99.90;;;;;;5100539;28;20478;-50
2022/12/26 09:14:01;;;;;;;10.90;10.20;;;14.00;99.90;;;;;;5097945;28;20413;-50
2022/12/26 09:16:41;;;;;;;9.50;9.00;;;14.10;99.90;;;;;;5086438;28;20461;-47
2022/12/26 09:19:11;;;;;;;10.30;9.80;;;14.30;99.90;;;;;;5100811;28;20425;-53
2022/12/26 09:21:38;;;;;;;9.97;9.40;;;14.40;99.90;;;;;;5100910;28;20425;-51
2022/12/26 09:24:06;;;;;;;10.23;9.60;;;14.50;99.90;;;;;;5099806;28;20429;-50
2022/12/26 09:26:32;;;;;;;9.90;9.30;;;14.60;99.90;;;;;;5099830;28;20457;-49
2022/12/26 09:28:58;;;;;;;10.00;9.50;;;14.60;99.90;;;;;;5100953;28;20429;-51
2022/12/26 09:31:30;;;;;;;10.00;9.50;;;14.80;99.90;;;;;;5100465;28;20461;-50
2022/12/26 09:33:56;;;;;;;10.10;9.40;;;15.30;99.90;;;;;;5099928;28;20512;-51
2022/12/26 09:36:26;;;;;;;9.70;9.10;;;15.80;99.90;;;;;;5101670;28;20407;-47
2022/12/26 09:38:54;;;;;;;10.03;9.43;;;15.90;99.10;;;;;;5101655;28;20407;-47
2022/12/26 09:41:53;;;;;;;9.73;9.10;;;15.80;98.70;;;;;;5099041;28;20447;-51
2022/12/26 09:44:43;;;;;;;10.33;9.80;;;15.50;99.20;;;;;;5100882;28;20421;-47
2022/12/26 09:47:32;;;;;;;9.70;9.20;;;15.50;99.30;;;;;;5100578;28;20426;-48
2022/12/26 09:50:00;;;;;;;9.67;9.17;;;15.40;99.50;;;;;;5098900;28;20833;-49
2022/12/26 09:52:37;;;;;;;10.13;9.63;;;15.40;99.90;;;;;;5098950;28;20444;-48
2022/12/26 09:55:24;;;;;;;9.90;9.30;;;15.40;99.90;;;;;;5098116;28;20450;-50
2022/12/26 09:57:52;;;;;;;9.63;9.03;;;15.40;99.90;;;;;;5098522;28;20421;-48
2022/12/26 10:00:21;;;;;;;9.83;9.23;;;15.20;99.90;;;;;;5097108;28;20547;-49
2022/12/26 10:02:53;;;;;;;9.30;8.80;;;15.20;99.90;;;;;;5096914;28;20443;-49
2022/12/26 10:05:21;;;;;;;9.33;8.60;;;15.20;99.90;;;;;;5081795;28;20459;-47
2022/12/26 10:08:29;;;;;;;9.27;8.73;;;15.20;99.90;;;;;;5099470;28;20465;-47
2022/12/26 10:11:01;;;;;;;9.40;8.80;;;15.10;99.90;;;;;;5097589;28;20461;-47
2022/12/26 10:13:37;;;;;;;8.27;7.77;;;15.10;99.90;;;;;;5098386;28;20824;-54
2022/12/26 10:16:10;;;;;;;8.77;8.27;;;14.90;99.90;;;;;;5098650;28;20496;-49
2022/12/26 10:18:57;;;;;;;9.00;8.50;;;14.90;99.90;;;;;;5098832;28;21022;-46
2022/12/26 10:21:47;;;;;;;9.17;8.57;;;15.00;99.90;;;;;;5099129;28;20402;-48
2022/12/26 10:24:21;;;;;;;9.57;9.07;;;15.10;99.90;;;;;;5099843;28;20457;-51
2022/12/26 10:26:54;;;;;;;9.27;8.67;;;15.10;99.90;;;;;;5099897;28;21004;-54
2022/12/26 10:29:29;;;;;;;9.37;8.87;;;15.10;99.90;;;;;;5098910;28;20862;-52
2022/12/26 10:32:29;;;;;;;9.97;9.47;;;15.00;99.90;;;;;;5099447;28;20484;-47
2022/12/26 10:34:57;;;;;;;9.70;9.00;;;14.70;99.90;;;;;;5100841;28;20452;-54
2022/12/26 10:37:34;;;;;;;10.60;10.00;;;14.60;99.90;;;;;;5100214;28;20584;-48
2022/12/26 10:40:10;;;;;;;10.30;9.67;;;14.50;99.90;;;;;;5097875;28;20425;-46
2022/12/26 10:42:42;;;;;;;10.40;9.90;;;14.40;99.90;;;;;;5098458;28;20423;-46
2022/12/26 10:45:47;;;;;;;9.97;9.37;;;14.50;99.90;;;;;;5097268;28;20472;-49
2022/12/26 10:48:14;;;;;;;10.30;9.70;;;14.60;99.90;;;;;;5077355;28;20524;-49
2022/12/26 10:50:46;;;;;;;9.40;8.90;;;14.70;99.90;;;;;;5098795;28;20866;-48
2022/12/26 10:53:13;;;;;;;10.17;9.57;;;14.90;99.90;;;;;;5098014;28;20435;-49
2022/12/26 10:55:39;;;;;;;10.40;9.70;;;15.10;99.90;;;;;;5097603;28;20407;-46
2022/12/26 10:58:27;;;;;;;9.30;8.80;;;15.20;99.90;;;;;;5097732;28;20467;-48
2022/12/26 11:00:53;;;;;;;10.30;9.80;;;15.30;99.90;;;;;;5097842;28;20204;-47
2022/12/26 11:03:20;;;;;;;10.07;9.57;;;15.40;99.90;;;;;;5097902;28;20473;-45
2022/12/26 11:05:49;;;;;;;9.20;8.70;;;15.60;99.90;;;;;;5080113;28;20396;-50
2022/12/26 11:08:35;;;;;;;9.77;9.17;;;15.80;99.90;;;;;;5099295;28;20917;-52
2022/12/26 11:11:05;;;;;;;9.57;9.07;;;15.90;99.90;;;;;;5099792;28;20579;-52
2022/12/26 11:13:48;;;;;;;10.20;9.60;;;16.00;99.90;;;;;;5102255;28;20439;-52
2022/12/26 11:16:42;;;;;;;9.60;9.00;;;16.00;98.90;;;;;;5103432;28;20468;-48
2022/12/26 11:19:28;;;;;;;10.87;10.27;;;16.10;98.20;;;;;;5102656;28;20815;-53
2022/12/26 11:22:12;;;;;;;10.43;9.93;;;15.90;98.30;;;;;;5103444;28;20408;-45
2022/12/26 11:24:38;;;;;;;9.50;9.00;;;15.90;98.60;;;;;;5103136;28;20471;-51
2022/12/26 11:27:17;;;;;;;8.90;8.50;;;16.00;98.00;;;;;;5103441;28;20986;-48
2022/12/26 11:29:43;;;;;;;9.83;9.33;;;16.00;97.80;;;;;;5103398;28;20680;-51
2022/12/26 11:32:18;;;;;;;9.70;9.10;;;16.20;97.30;;;;;;5101948;28;20469;-46
2022/12/26 11:34:47;;;;;;;8.27;7.87;;;16.30;96.40;;;;;;5102949;28;20289;-49
2022/12/26 11:37:28;;;;;;;8.20;7.80;;;16.30;96.60;;;;;;5103045;28;20416;-47
2022/12/26 11:39:55;;;;;;;8.70;8.20;;;16.40;96.00;;;;;;5102576;28;20444;-48
2022/12/26 11:42:24;;;;;;;9.10;8.60;;;16.20;96.00;;;;;;5102864;28;20446;-48
2022/12/26 11:44:53;;;;;;;9.27;8.87;;;16.30;95.60;;;;;;5103083;28;20440;-54
2022/12/26 11:47:27;;;;;;;9.43;8.83;;;16.30;95.40;;;;;;5103036;28;20424;-51
2022/12/26 11:49:59;;;;;;;9.30;8.80;;;16.30;95.90;;;;;;5103046;28;20417;-46
2022/12/26 11:52:43;;;;;;;8.77;8.37;;;16.10;95.30;;;;;;5103563;28;20533;-48
2022/12/26 11:55:35;;;;;;;8.20;7.80;;;15.80;96.60;;;;;;5102909;28;20408;-52
2022/12/26 11:58:07;;;;;;;8.97;8.47;;;15.50;97.20;;;;;;5103236;28;20977;-47
2022/12/26 12:01:04;;;;;;;9.73;9.23;;;15.40;97.80;;;;;;5101703;28;20771;-47
2022/12/26 12:03:29;;;;;;;9.53;9.03;;;15.20;99.40;;;;;;5102689;28;20497;-50
2022/12/26 12:06:32;;;;;;;9.30;8.90;;;15.20;99.30;;;;;;5102517;28;20463;-50
2022/12/26 12:09:13;;;;;;;8.97;8.57;;;15.10;99.90;;;;;;5102836;28;20231;-49
2022/12/26 12:12:20;;;;;;;8.57;8.17;;;15.00;99.90;;;;;;5102422;28;20450;-51
2022/12/26 12:15:00;;;;;;;8.80;8.30;;;14.90;99.90;;;;;;5073673;28;20433;-48
2022/12/26 12:17:34;;;;;;;8.63;8.20;;;15.00;99.90;;;;;;5101845;28;20995;-53
2022/12/26 12:20:06;;;;;;;7.70;7.30;;;15.00;99.90;;;;;;5102208;28;20913;-50
2022/12/26 12:22:45;;;;;;;9.07;8.67;;;14.90;99.90;;;;;;5084160;28;20972;-48
2022/12/26 12:25:19;;;;;;;8.90;8.50;;;14.90;99.90;;;;;;5102211;28;20448;-51
2022/12/26 12:27:51;;;;;;;7.80;7.47;;;14.80;99.90;;;;;;5101731;28;20983;-53
2022/12/26 12:30:39;;;;;;;8.30;7.90;;;14.60;99.90;;;;;;5100847;28;20506;-47
2022/12/26 12:33:41;;;;;;;9.80;9.30;;;14.60;99.90;;;;;;5101700;28;20755;-51
2022/12/26 12:36:34;;;;;;;9.40;8.90;;;14.60;99.90;;;;;;5101860;28;20422;-46
2022/12/26 12:39:11;;;;;;;9.33;8.93;;;14.60;99.90;;;;;;5102378;28;20459;-47
2022/12/26 12:42:03;;;;;;;8.10;7.70;;;14.60;99.90;;;;;;5101740;28;20829;-46
2022/12/26 12:44:45;;;;;;;8.97;8.57;;;14.40;99.90;;;;;;5101880;28;20410;-48
2022/12/26 12:47:32;;;;;;;8.97;8.47;;;14.40;99.90;;;;;;5099731;28;20553;-51
2022/12/26 12:50:13;;;;;;;8.70;8.30;;;14.30;99.90;;;;;;5097267;28;20455;-49
2022/12/26 12:52:58;;;;;;;7.60;7.20;;;14.20;99.90;;;;;;5100280;28;20515;-48
2022/12/26 12:55:39;;;;;;;8.87;8.47;;;14.10;99.90;;;;;;5099199;27;20429;-51
2022/12/26 12:58:26;;;;;;;8.70;8.23;;;14.30;99.90;;;;;;5100256;28;20481;-51
2022/12/26 13:01:00;;;;;;;8.90;8.50;;;14.30;99.90;;;;;;5100557;28;20619;-49
2022/12/26 13:03:53;;;;;;;8.67;8.27;;;14.20;99.90;;;;;;5098138;27;20434;-46
2022/12/26 13:06:49;;;;;;;8.90;8.40;;;14.30;99.90;;;;;;5099992;28;20988;-48
2022/12/26 13:09:30;;;;;;;8.97;8.57;;;14.10;99.90;;;;;;5097996;28;20458;-45
2022/12/26 13:12:04;;;;;;;8.37;7.97;;;14.10;99.90;;;;;;5094985;28;20543;-47
2022/12/26 13:14:37;;;;;;;8.13;7.83;;;14.00;99.90;;;;;;5098833;28;20439;-48
2022/12/26 13:17:30;;;;;;;13.43;12.70;;;14.00;99.90;;;;;;5081241;28;21052;-57
2022/12/26 13:20:01;;;;;;;13.57;12.87;;;13.90;99.90;;;;;;5086639;28;21149;-55
2022/12/26 13:25:24;;;;;;;14.13;13.53;;;12.40;99.90;;;;;;5099609;28;20428;-53
2022/12/26 13:27:53;;;;;;;14.67;14.03;;;12.00;99.90;;;;;;5100596;28;20402;-52
2022/12/26 13:30:19;;;;;;;15.27;14.47;;;11.50;99.90;;;;;;5100928;28;20433;-55
2022/12/26 13:32:45;;;;;;;15.40;14.80;;;11.30;99.90;;;;;;5101510;28;20406;-54
2022/12/26 13:35:55;;;;;;;15.40;14.70;;;11.10;99.90;;;;;;5100525;28;20434;-52
2022/12/26 13:38:22;;;;;;;15.70;15.00;;;10.90;99.90;;;;;;5057692;28;20193;-52
2022/12/26 13:44:05;;;;;;;17.63;16.73;;;10.70;99.90;;;;;;5055038;28;20990;-56
2022/12/26 13:46:52;;;;;;;18.37;17.47;;;10.60;99.90;;;;;;5099834;28;20441;-55
2022/12/26 13:49:38;;;;;;;15.20;14.50;;;10.50;99.90;;;;;;5098600;28;20520;-55
2022/12/26 13:52:10;;;;;;;19.57;18.57;;;10.50;99.90;;;;;;5099921;28;21124;-53
2022/12/26 13:54:49;;;;;;;18.40;17.50;;;10.50;99.90;;;;;;5100626;28;20544;-52
2022/12/26 13:57:23;;;;;;;19.47;18.30;;;10.40;99.90;;;;;;5100656;28;20948;-52
2022/12/26 14:00:10;;;;;;;20.27;19.10;;;10.40;99.90;;;;;;5082094;28;20428;-53
2022/12/26 14:03:13;;;;;;;18.40;17.20;;;10.30;99.90;;;;;;5100396;27;20507;-54
2022/12/26 14:06:10;;;;;;;21.17;19.97;;;10.30;99.90;;;;;;5101329;28;20420;-46
2022/12/26 14:08:38;;;;;;;17.60;16.60;;;10.30;99.90;;;;;;5091038;28;20445;-46
2022/12/26 14:11:32;;;;;;;20.97;19.53;;;10.30;99.90;;;;;;5100400;28;20959;-46
2022/12/26 14:14:35;;;;;;;35.00;31.93;;;10.40;99.90;;;;;;5098871;28;20935;-48
2022/12/26 14:17:34;;;;;;;20.73;19.33;;;10.30;99.90;;;;;;5099249;28;20556;-47
2022/12/26 14:20:11;;;;;;;40.63;36.90;;;10.30;99.90;;;;;;5092806;28;20436;-49
2022/12/26 14:23:04;;;;;;;26.73;24.83;;;10.30;99.90;;;;;;5082236;28;20414;-47
2022/12/26 14:25:44;;;;;;;21.57;20.20;;;10.30;99.90;;;;;;5099346;28;20426;-50
2022/12/26 14:28:34;;;;;;;19.67;18.57;;;10.30;99.90;;;;;;5098066;28;20440;-50
2022/12/26 14:31:22;;;;;;;21.00;19.70;;;10.30;99.90;;;;;;5098556;27;20453;-46
2022/12/26 14:33:59;;;;;;;25.03;23.13;;;10.30;99.90;;;;;;5097333;28;20541;-48
2022/12/26 14:36:24;;;;;;;20.67;19.23;;;10.30;99.90;;;;;;5078278;28;20435;-50
2022/12/26 14:39:11;;;;;;;18.17;17.17;;;10.30;99.90;;;;;;5098445;28;20418;-46
2022/12/26 14:44:58;;;;;;;17.20;16.20;;;10.20;99.90;;;;;;5035482;28;20478;-51
2022/12/26 14:47:54;;;;;;;22.50;20.90;;;10.20;99.90;;;;;;5104657;28;20434;-55
2022/12/26 14:50:31;;;;;;;14.60;13.93;;;10.30;99.90;;;;;;5087596;27;20476;-48
2022/12/26 14:53:16;;;;;;;13.30;12.70;;;10.30;99.90;;;;;;5096121;28;20421;-51
2022/12/26 14:55:53;;;;;;;13.17;12.57;;;10.40;99.90;;;;;;5105051;28;20470;-51
2022/12/26 14:58:57;;;;;;;12.70;12.10;;;10.40;99.90;;;;;;5105515;28;20486;-47
2022/12/26 15:01:23;;;;;;;13.10;12.50;;;10.50;99.90;;;;;;5063930;28;20437;-52
2022/12/26 15:04:27;;;;;;;13.27;12.67;;;10.50;99.90;;;;;;5101819;28;20976;-51
2022/12/26 15:07:32;;;;;;;13.43;12.73;;;10.50;99.90;;;;;;5106543;28;20179;-48
2022/12/26 15:10:30;;;;;;;13.03;12.33;;;10.50;99.90;;;;;;5090596;28;20433;-52
2022/12/26 15:13:31;;;;;;;12.97;12.27;;;10.50;99.90;;;;;;5077861;28;20520;-49